首页
METAR-TAF:

METAR-TAF

机场 :

麦迪逊, 威斯康辛州, 美国

纬度: 43-08-26N, 经度: 089-20-43W, 海拔: 262米

当前天气观测

该预报发布于1小时和7分钟前的17:53 UTC
风速13节,风向西北,有时为19节阵风
温度 -2°C
湿度 59%
气压 1022 hPa
能見度: 16.1公里
天空无云

METAR: KMSN 181753Z 32013G19KT 10SM CLR M02/M09 A3017 RMK AO2 SLP227 4/013 933025 T10171089 10000 21028 51021

时间: 13:00 (19:00 UTC)

预报

该预报发布于1小时和31分钟前的17:29 UTC
预报有效从18日的 18点(UTC)到 19日的 18点(UTC)
风速13节,风向西转西北,有时为21节阵风
能見度: 10公里
少量云层高于2400英尺
从 18日的 2200点(UTC)
风速11节,风向西转西北
能見度: 10公里
少量云层高于3500英尺
从 19日的 0700点(UTC)
风速8节,风向西北
能見度: 10公里
散云层高于15000英尺

TAF: KMSN 181729Z 1818/1918 30013G21KT P6SM FEW024 FM182200 30011KT P6SM FEW035 FM190700 32008KT P6SM SCT150

超过4000个机场的气象观测和天气预报(METAR&TAF报告)。

可查询的气象台以黄色和红色小点在地图上表示。

将鼠标移到小点上方,可查看气象台名称。

然后点击查看天气观测和预报。

如需切换地图:点击带黑十字的绿色按钮放大地图;点击带横线的绿色按钮缩小地图;或者点击绿色箭头查看邻近地区的地图。


METAR-TAF: